sensor_id;sensor_type;location;lat;lon;timestamp;temperature;humidity
37846;DHT22;23686;49.828;8.702;2022-11-20T00:01:20;4.70;71.80
37846;DHT22;23686;49.828;8.702;2022-11-20T00:03:46;4.70;70.10
37846;DHT22;23686;49.828;8.702;2022-11-20T00:06:14;4.80;69.10
37846;DHT22;23686;49.828;8.702;2022-11-20T00:08:40;4.70;69.80
37846;DHT22;23686;49.828;8.702;2022-11-20T00:11:08;4.70;68.50
37846;DHT22;23686;49.828;8.702;2022-11-20T00:13:34;4.80;68.40
37846;DHT22;23686;49.828;8.702;2022-11-20T00:16:01;4.70;74.40
37846;DHT22;23686;49.828;8.702;2022-11-20T00:18:27;4.70;69.20
37846;DHT22;23686;49.828;8.702;2022-11-20T00:20:53;4.70;69.00
37846;DHT22;23686;49.828;8.702;2022-11-20T00:23:19;4.70;70.00
37846;DHT22;23686;49.828;8.702;2022-11-20T00:25:45;4.60;69.00
37846;DHT22;23686;49.828;8.702;2022-11-20T00:28:10;4.60;66.10
37846;DHT22;23686;49.828;8.702;2022-11-20T00:30:36;4.70;68.10
37846;DHT22;23686;49.828;8.702;2022-11-20T00:33:01;4.60;67.40
37846;DHT22;23686;49.828;8.702;2022-11-20T00:35:27;4.60;69.60
37846;DHT22;23686;49.828;8.702;2022-11-20T00:37:52;4.60;69.20
37846;DHT22;23686;49.828;8.702;2022-11-20T00:40:18;4.60;67.70
37846;DHT22;23686;49.828;8.702;2022-11-20T00:42:44;4.60;68.10
37846;DHT22;23686;49.828;8.702;2022-11-20T00:45:09;4.60;67.90
37846;DHT22;23686;49.828;8.702;2022-11-20T00:47:35;4.50;66.60
37846;DHT22;23686;49.828;8.702;2022-11-20T00:50:00;4.60;66.20
37846;DHT22;23686;49.828;8.702;2022-11-20T00:52:26;4.60;68.30
37846;DHT22;23686;49.828;8.702;2022-11-20T00:54:51;4.60;66.20
37846;DHT22;23686;49.828;8.702;2022-11-20T00:57:17;4.60;65.30
37846;DHT22;23686;49.828;8.702;2022-11-20T00:59:42;4.60;60.10
37846;DHT22;23686;49.828;8.702;2022-11-20T01:02:08;4.70;63.70
37846;DHT22;23686;49.828;8.702;2022-11-20T01:04:34;4.70;65.40
37846;DHT22;23686;49.828;8.702;2022-11-20T01:07:58;4.70;64.60
37846;DHT22;23686;49.828;8.702;2022-11-20T01:10:24;4.60;67.90
37846;DHT22;23686;49.828;8.702;2022-11-20T01:12:49;4.60;68.00
37846;DHT22;23686;49.828;8.702;2022-11-20T01:15:35;4.60;65.50
37846;DHT22;23686;49.828;8.702;2022-11-20T01:18:01;4.60;66.70
37846;DHT22;23686;49.828;8.702;2022-11-20T01:20:27;4.60;63.00
37846;DHT22;23686;49.828;8.702;2022-11-20T01:22:52;4.60;65.40
37846;DHT22;23686;49.828;8.702;2022-11-20T01:25:18;4.60;66.30
37846;DHT22;23686;49.828;8.702;2022-11-20T01:27:43;4.60;68.00
37846;DHT22;23686;49.828;8.702;2022-11-20T01:30:09;4.60;66.80
37846;DHT22;23686;49.828;8.702;2022-11-20T01:32:35;4.60;65.00
37846;DHT22;23686;49.828;8.702;2022-11-20T01:35:00;4.60;67.00
37846;DHT22;23686;49.828;8.702;2022-11-20T01:37:26;4.70;66.40
37846;DHT22;23686;49.828;8.702;2022-11-20T01:39:51;4.70;64.60
37846;DHT22;23686;49.828;8.702;2022-11-20T01:42:17;4.70;68.10
37846;DHT22;23686;49.828;8.702;2022-11-20T01:45:01;4.70;66.00
37846;DHT22;23686;49.828;8.702;2022-11-20T01:50:12;4.70;66.00
37846;DHT22;23686;49.828;8.702;2022-11-20T01:52:44;4.80;66.50
37846;DHT22;23686;49.828;8.702;2022-11-20T01:55:15;4.70;65.40
37846;DHT22;23686;49.828;8.702;2022-11-20T01:57:41;4.80;65.00
37846;DHT22;23686;49.828;8.702;2022-11-20T02:00:12;4.80;66.70
37846;DHT22;23686;49.828;8.702;2022-11-20T02:02:40;4.80;69.80
37846;DHT22;23686;49.828;8.702;2022-11-20T02:05:33;4.70;66.50
37846;DHT22;23686;49.828;8.702;2022-11-20T02:08:03;4.70;65.80
37846;DHT22;23686;49.828;8.702;2022-11-20T02:10:29;4.70;63.70
37846;DHT22;23686;49.828;8.702;2022-11-20T02:12:56;4.70;60.70
37846;DHT22;23686;49.828;8.702;2022-11-20T02:15:40;4.70;56.20
37846;DHT22;23686;49.828;8.702;2022-11-20T02:18:06;4.80;58.50
37846;DHT22;23686;49.828;8.702;2022-11-20T02:20:32;4.80;55.40
37846;DHT22;23686;49.828;8.702;2022-11-20T02:23:08;4.80;56.40
37846;DHT22;23686;49.828;8.702;2022-11-20T02:25:36;4.80;58.70
37846;DHT22;23686;49.828;8.702;2022-11-20T02:28:04;4.80;58.30
37846;DHT22;23686;49.828;8.702;2022-11-20T02:30:30;4.80;58.10
37846;DHT22;23686;49.828;8.702;2022-11-20T02:32:55;4.80;58.20
37846;DHT22;23686;49.828;8.702;2022-11-20T02:37:51;4.90;60.60
37846;DHT22;23686;49.828;8.702;2022-11-20T02:40:17;4.90;60.10
37846;DHT22;23686;49.828;8.702;2022-11-20T02:42:43;4.90;55.50
37846;DHT22;23686;49.828;8.702;2022-11-20T02:45:08;4.90;54.50
37846;DHT22;23686;49.828;8.702;2022-11-20T02:47:34;5.00;50.10
37846;DHT22;23686;49.828;8.702;2022-11-20T02:50:00;4.90;49.80
37846;DHT22;23686;49.828;8.702;2022-11-20T02:52:26;5.00;45.90
37846;DHT22;23686;49.828;8.702;2022-11-20T02:54:52;5.00;43.80
37846;DHT22;23686;49.828;8.702;2022-11-20T02:57:17;5.00;44.70
37846;DHT22;23686;49.828;8.702;2022-11-20T02:59:43;5.00;42.80
37846;DHT22;23686;49.828;8.702;2022-11-20T03:02:08;5.00;44.10
37846;DHT22;23686;49.828;8.702;2022-11-20T03:04:34;5.00;46.00
37846;DHT22;23686;49.828;8.702;2022-11-20T03:07:00;5.00;45.80
37846;DHT22;23686;49.828;8.702;2022-11-20T03:09:25;5.00;46.50
37846;DHT22;23686;49.828;8.702;2022-11-20T03:11:51;5.00;47.80
37846;DHT22;23686;49.828;8.702;2022-11-20T03:14:16;5.00;42.70
37846;DHT22;23686;49.828;8.702;2022-11-20T03:16:42;5.10;45.60
37846;DHT22;23686;49.828;8.702;2022-11-20T03:19:07;5.10;45.30
37846;DHT22;23686;49.828;8.702;2022-11-20T03:21:33;5.00;53.50
37846;DHT22;23686;49.828;8.702;2022-11-20T03:23:59;5.00;49.50
37846;DHT22;23686;49.828;8.702;2022-11-20T03:26:26;5.00;46.90
37846;DHT22;23686;49.828;8.702;2022-11-20T03:29:03;5.00;50.70
37846;DHT22;23686;49.828;8.702;2022-11-20T03:31:32;5.00;46.20
37846;DHT22;23686;49.828;8.702;2022-11-20T03:33:58;5.00;50.20
37846;DHT22;23686;49.828;8.702;2022-11-20T03:36:25;5.00;46.70
37846;DHT22;23686;49.828;8.702;2022-11-20T03:38:50;5.00;52.70
37846;DHT22;23686;49.828;8.702;2022-11-20T03:41:20;5.00;48.00
37846;DHT22;23686;49.828;8.702;2022-11-20T03:43:50;5.00;46.90
37846;DHT22;23686;49.828;8.702;2022-11-20T03:46:16;5.00;50.00
37846;DHT22;23686;49.828;8.702;2022-11-20T03:48:42;5.00;50.90
37846;DHT22;23686;49.828;8.702;2022-11-20T03:51:08;5.00;50.30
37846;DHT22;23686;49.828;8.702;2022-11-20T03:57:33;5.00;47.10
37846;DHT22;23686;49.828;8.702;2022-11-20T03:59:59;5.00;48.30
37846;DHT22;23686;49.828;8.702;2022-11-20T04:02:24;5.00;46.00
37846;DHT22;23686;49.828;8.702;2022-11-20T04:04:50;5.00;45.10
37846;DHT22;23686;49.828;8.702;2022-11-20T04:07:15;5.00;42.60
37846;DHT22;23686;49.828;8.702;2022-11-20T04:09:41;5.00;44.70
37846;DHT22;23686;49.828;8.702;2022-11-20T04:12:06;4.90;45.10
37846;DHT22;23686;49.828;8.702;2022-11-20T04:14:32;5.00;46.50
37846;DHT22;23686;49.828;8.702;2022-11-20T04:16:58;5.00;45.50
37846;DHT22;23686;49.828;8.702;2022-11-20T04:19:23;5.00;47.80
37846;DHT22;23686;49.828;8.702;2022-11-20T04:21:49;5.00;46.50
37846;DHT22;23686;49.828;8.702;2022-11-20T04:24:14;5.00;44.50
37846;DHT22;23686;49.828;8.702;2022-11-20T04:26:40;5.00;43.60
37846;DHT22;23686;49.828;8.702;2022-11-20T04:29:05;5.00;49.10
37846;DHT22;23686;49.828;8.702;2022-11-20T04:31:33;5.00;45.10
37846;DHT22;23686;49.828;8.702;2022-11-20T04:34:00;5.00;46.90
37846;DHT22;23686;49.828;8.702;2022-11-20T04:36:27;5.00;47.20
37846;DHT22;23686;49.828;8.702;2022-11-20T04:38:57;5.00;47.10
37846;DHT22;23686;49.828;8.702;2022-11-20T04:41:32;5.00;45.60
37846;DHT22;23686;49.828;8.702;2022-11-20T04:44:00;5.00;44.50
37846;DHT22;23686;49.828;8.702;2022-11-20T04:46:29;5.00;44.40
37846;DHT22;23686;49.828;8.702;2022-11-20T04:48:55;5.00;45.20
37846;DHT22;23686;49.828;8.702;2022-11-20T04:51:21;5.00;43.40
37846;DHT22;23686;49.828;8.702;2022-11-20T04:53:46;5.00;41.10
37846;DHT22;23686;49.828;8.702;2022-11-20T04:56:12;5.00;42.60
37846;DHT22;23686;49.828;8.702;2022-11-20T04:58:39;5.00;41.10
37846;DHT22;23686;49.828;8.702;2022-11-20T05:01:16;5.10;40.20
37846;DHT22;23686;49.828;8.702;2022-11-20T05:03:43;5.10;40.40
37846;DHT22;23686;49.828;8.702;2022-11-20T05:06:10;5.10;44.20
37846;DHT22;23686;49.828;8.702;2022-11-20T05:08:36;5.10;43.00
37846;DHT22;23686;49.828;8.702;2022-11-20T05:11:10;5.10;42.10
37846;DHT22;23686;49.828;8.702;2022-11-20T05:13:36;5.10;42.80
37846;DHT22;23686;49.828;8.702;2022-11-20T05:16:04;5.10;44.00
37846;DHT22;23686;49.828;8.702;2022-11-20T05:18:30;5.10;44.90
37846;DHT22;23686;49.828;8.702;2022-11-20T05:20:57;5.10;43.50
37846;DHT22;23686;49.828;8.702;2022-11-20T05:23:24;5.10;44.30
37846;DHT22;23686;49.828;8.702;2022-11-20T05:25:54;5.10;42.40
37846;DHT22;23686;49.828;8.702;2022-11-20T05:28:20;5.10;41.60
37846;DHT22;23686;49.828;8.702;2022-11-20T05:30:45;5.10;41.80
37846;DHT22;23686;49.828;8.702;2022-11-20T05:33:11;5.10;41.40
37846;DHT22;23686;49.828;8.702;2022-11-20T05:35:36;5.10;44.20
37846;DHT22;23686;49.828;8.702;2022-11-20T05:38:02;5.10;45.00
37846;DHT22;23686;49.828;8.702;2022-11-20T05:40:28;5.10;45.90
37846;DHT22;23686;49.828;8.702;2022-11-20T05:42:53;5.20;45.30
37846;DHT22;23686;49.828;8.702;2022-11-20T05:45:19;5.10;47.20
37846;DHT22;23686;49.828;8.702;2022-11-20T05:47:44;5.10;42.00
37846;DHT22;23686;49.828;8.702;2022-11-20T05:50:10;5.10;44.30
37846;DHT22;23686;49.828;8.702;2022-11-20T05:52:35;5.10;42.70
37846;DHT22;23686;49.828;8.702;2022-11-20T05:55:01;5.10;40.00
37846;DHT22;23686;49.828;8.702;2022-11-20T05:57:27;5.10;42.80
37846;DHT22;23686;49.828;8.702;2022-11-20T05:59:52;5.10;39.10
37846;DHT22;23686;49.828;8.702;2022-11-20T06:02:18;5.20;40.80
37846;DHT22;23686;49.828;8.702;2022-11-20T06:04:43;5.20;39.70
37846;DHT22;23686;49.828;8.702;2022-11-20T06:07:09;5.10;41.20
37846;DHT22;23686;49.828;8.702;2022-11-20T06:09:34;5.10;40.50
37846;DHT22;23686;49.828;8.702;2022-11-20T06:12:00;5.10;37.40
37846;DHT22;23686;49.828;8.702;2022-11-20T06:14:25;5.10;41.40
37846;DHT22;23686;49.828;8.702;2022-11-20T06:16:51;5.10;43.70
37846;DHT22;23686;49.828;8.702;2022-11-20T06:19:17;5.20;45.50
37846;DHT22;23686;49.828;8.702;2022-11-20T06:21:42;5.10;44.30
37846;DHT22;23686;49.828;8.702;2022-11-20T06:24:11;5.10;51.10
37846;DHT22;23686;49.828;8.702;2022-11-20T06:26:36;5.10;46.60
37846;DHT22;23686;49.828;8.702;2022-11-20T06:29:02;5.10;46.00
37846;DHT22;23686;49.828;8.702;2022-11-20T06:31:28;5.10;43.90
37846;DHT22;23686;49.828;8.702;2022-11-20T06:33:54;5.10;46.00
37846;DHT22;23686;49.828;8.702;2022-11-20T06:36:21;5.10;43.80
37846;DHT22;23686;49.828;8.702;2022-11-20T06:38:47;5.10;41.40
37846;DHT22;23686;49.828;8.702;2022-11-20T06:41:15;5.10;41.40
37846;DHT22;23686;49.828;8.702;2022-11-20T06:43:42;5.20;43.70
37846;DHT22;23686;49.828;8.702;2022-11-20T06:46:09;5.20;47.10
37846;DHT22;23686;49.828;8.702;2022-11-20T06:48:35;5.20;43.60
37846;DHT22;23686;49.828;8.702;2022-11-20T06:51:05;5.20;41.00
37846;DHT22;23686;49.828;8.702;2022-11-20T06:53:31;5.20;47.50
37846;DHT22;23686;49.828;8.702;2022-11-20T06:55:57;5.20;44.80
37846;DHT22;23686;49.828;8.702;2022-11-20T06:58:25;5.20;47.90
37846;DHT22;23686;49.828;8.702;2022-11-20T07:00:51;5.20;48.80
37846;DHT22;23686;49.828;8.702;2022-11-20T07:03:17;5.20;48.00
37846;DHT22;23686;49.828;8.702;2022-11-20T07:05:42;5.20;50.70
37846;DHT22;23686;49.828;8.702;2022-11-20T07:08:09;5.20;52.70
37846;DHT22;23686;49.828;8.702;2022-11-20T07:10:34;5.10;55.20
37846;DHT22;23686;49.828;8.702;2022-11-20T07:13:00;5.20;53.00
37846;DHT22;23686;49.828;8.702;2022-11-20T07:15:26;5.20;56.00
37846;DHT22;23686;49.828;8.702;2022-11-20T07:17:51;5.10;54.20
37846;DHT22;23686;49.828;8.702;2022-11-20T07:20:17;5.10;52.40
37846;DHT22;23686;49.828;8.702;2022-11-20T07:22:43;5.20;53.60
37846;DHT22;23686;49.828;8.702;2022-11-20T07:25:09;5.10;51.00
37846;DHT22;23686;49.828;8.702;2022-11-20T07:27:36;5.20;52.60
37846;DHT22;23686;49.828;8.702;2022-11-20T07:30:03;5.20;53.30
37846;DHT22;23686;49.828;8.702;2022-11-20T07:32:29;5.20;53.70
37846;DHT22;23686;49.828;8.702;2022-11-20T07:34:54;5.20;50.00
37846;DHT22;23686;49.828;8.702;2022-11-20T07:37:20;5.20;50.50
37846;DHT22;23686;49.828;8.702;2022-11-20T07:39:45;5.20;51.90
37846;DHT22;23686;49.828;8.702;2022-11-20T07:42:11;5.20;50.90
37846;DHT22;23686;49.828;8.702;2022-11-20T07:44:37;5.20;50.00
37846;DHT22;23686;49.828;8.702;2022-11-20T07:47:03;5.20;53.00
37846;DHT22;23686;49.828;8.702;2022-11-20T07:49:29;5.30;47.90
37846;DHT22;23686;49.828;8.702;2022-11-20T07:51:54;5.30;51.10
37846;DHT22;23686;49.828;8.702;2022-11-20T07:54:20;5.30;48.80
37846;DHT22;23686;49.828;8.702;2022-11-20T07:56:47;5.30;46.80
37846;DHT22;23686;49.828;8.702;2022-11-20T07:59:13;5.30;48.50
37846;DHT22;23686;49.828;8.702;2022-11-20T08:01:39;5.30;51.80
37846;DHT22;23686;49.828;8.702;2022-11-20T08:04:05;5.30;54.90
37846;DHT22;23686;49.828;8.702;2022-11-20T08:06:31;5.30;54.20
37846;DHT22;23686;49.828;8.702;2022-11-20T08:08:56;5.30;53.80
37846;DHT22;23686;49.828;8.702;2022-11-20T08:11:22;5.30;53.90
37846;DHT22;23686;49.828;8.702;2022-11-20T08:14:06;5.40;51.50
37846;DHT22;23686;49.828;8.702;2022-11-20T08:16:41;5.40;50.70
37846;DHT22;23686;49.828;8.702;2022-11-20T08:19:07;5.40;47.70
37846;DHT22;23686;49.828;8.702;2022-11-20T08:21:33;5.40;46.80
37846;DHT22;23686;49.828;8.702;2022-11-20T08:23:59;5.40;43.40
37846;DHT22;23686;49.828;8.702;2022-11-20T08:26:25;5.40;46.50
37846;DHT22;23686;49.828;8.702;2022-11-20T08:28:55;5.50;46.20
37846;DHT22;23686;49.828;8.702;2022-11-20T08:31:22;5.50;51.80
37846;DHT22;23686;49.828;8.702;2022-11-20T08:33:47;5.50;48.00
37846;DHT22;23686;49.828;8.702;2022-11-20T08:36:13;5.60;47.40
37846;DHT22;23686;49.828;8.702;2022-11-20T08:38:39;5.50;45.80
37846;DHT22;23686;49.828;8.702;2022-11-20T08:41:05;5.60;43.80
37846;DHT22;23686;49.828;8.702;2022-11-20T08:44:00;5.60;46.80
37846;DHT22;23686;49.828;8.702;2022-11-20T08:46:32;5.70;43.90
37846;DHT22;23686;49.828;8.702;2022-11-20T08:49:05;5.80;44.80
37846;DHT22;23686;49.828;8.702;2022-11-20T08:51:31;5.80;49.00
37846;DHT22;23686;49.828;8.702;2022-11-20T08:53:57;5.80;45.90
37846;DHT22;23686;49.828;8.702;2022-11-20T08:56:22;5.80;44.00
37846;DHT22;23686;49.828;8.702;2022-11-20T08:58:50;5.80;43.70
37846;DHT22;23686;49.828;8.702;2022-11-20T09:01:16;5.80;46.70
37846;DHT22;23686;49.828;8.702;2022-11-20T09:03:42;5.90;49.00
37846;DHT22;23686;49.828;8.702;2022-11-20T09:06:08;5.90;56.20
37846;DHT22;23686;49.828;8.702;2022-11-20T09:08:34;5.90;52.70
37846;DHT22;23686;49.828;8.702;2022-11-20T09:11:01;5.90;52.50
37846;DHT22;23686;49.828;8.702;2022-11-20T09:13:28;6.00;52.80
37846;DHT22;23686;49.828;8.702;2022-11-20T09:16:02;6.00;52.60
37846;DHT22;23686;49.828;8.702;2022-11-20T09:18:29;6.00;52.20
37846;DHT22;23686;49.828;8.702;2022-11-20T09:21:00;6.10;49.90
37846;DHT22;23686;49.828;8.702;2022-11-20T09:23:26;6.10;52.30
37846;DHT22;23686;49.828;8.702;2022-11-20T09:25:52;6.10;49.60
37846;DHT22;23686;49.828;8.702;2022-11-20T09:28:20;6.10;52.70
37846;DHT22;23686;49.828;8.702;2022-11-20T09:30:46;6.10;54.00
37846;DHT22;23686;49.828;8.702;2022-11-20T09:33:12;6.20;56.50
37846;DHT22;23686;49.828;8.702;2022-11-20T09:35:38;6.20;55.50
37846;DHT22;23686;49.828;8.702;2022-11-20T09:38:07;6.20;57.10
37846;DHT22;23686;49.828;8.702;2022-11-20T09:40:34;6.20;53.30
37846;DHT22;23686;49.828;8.702;2022-11-20T09:54:18;6.40;55.10
37846;DHT22;23686;49.828;8.702;2022-11-20T09:56:55;6.40;55.50
37846;DHT22;23686;49.828;8.702;2022-11-20T09:59:56;6.40;54.30
37846;DHT22;23686;49.828;8.702;2022-11-20T10:02:58;6.40;50.40
37846;DHT22;23686;49.828;8.702;2022-11-20T10:05:42;6.40;49.40
37846;DHT22;23686;49.828;8.702;2022-11-20T10:08:28;6.40;46.40
37846;DHT22;23686;49.828;8.702;2022-11-20T10:13:51;6.50;51.40
37846;DHT22;23686;49.828;8.702;2022-11-20T10:22:25;6.50;50.50
37846;DHT22;23686;49.828;8.702;2022-11-20T10:27:50;6.60;47.90
37846;DHT22;23686;49.828;8.702;2022-11-20T10:30:26;6.60;47.40
37846;DHT22;23686;49.828;8.702;2022-11-20T10:33:02;6.50;46.50
37846;DHT22;23686;49.828;8.702;2022-11-20T10:35:39;6.50;52.00
37846;DHT22;23686;49.828;8.702;2022-11-20T10:41:00;6.50;49.40
37846;DHT22;23686;49.828;8.702;2022-11-20T10:43:46;6.50;50.30
37846;DHT22;23686;49.828;8.702;2022-11-20T10:46:18;6.50;44.70
37846;DHT22;23686;49.828;8.702;2022-11-20T10:48:46;6.50;45.40
37846;DHT22;23686;49.828;8.702;2022-11-20T10:51:37;6.40;45.70
37846;DHT22;23686;49.828;8.702;2022-11-20T10:56:48;6.40;46.40
37846;DHT22;23686;49.828;8.702;2022-11-20T11:00:21;6.40;46.40
37846;DHT22;23686;49.828;8.702;2022-11-20T11:02:24;6.40;45.00
37846;DHT22;23686;49.828;8.702;2022-11-20T11:04:54;6.40;45.70
37846;DHT22;23686;49.828;8.702;2022-11-20T11:07:31;6.40;47.80
37846;DHT22;23686;49.828;8.702;2022-11-20T11:10:00;6.40;47.10
37846;DHT22;23686;49.828;8.702;2022-11-20T11:12:28;6.50;47.10
37846;DHT22;23686;49.828;8.702;2022-11-20T11:14:58;6.50;46.90
37846;DHT22;23686;49.828;8.702;2022-11-20T11:17:29;6.50;48.20
37846;DHT22;23686;49.828;8.702;2022-11-20T11:20:17;6.50;49.40
37846;DHT22;23686;49.828;8.702;2022-11-20T11:22:55;6.50;48.10
37846;DHT22;23686;49.828;8.702;2022-11-20T11:25:32;6.50;44.70
37846;DHT22;23686;49.828;8.702;2022-11-20T11:28:20;6.60;37.60
37846;DHT22;23686;49.828;8.702;2022-11-20T11:30:46;6.50;40.10
37846;DHT22;23686;49.828;8.702;2022-11-20T11:33:24;6.60;39.10
37846;DHT22;23686;49.828;8.702;2022-11-20T11:35:59;6.60;38.20
37846;DHT22;23686;49.828;8.702;2022-11-20T11:38:37;6.60;38.20
37846;DHT22;23686;49.828;8.702;2022-11-20T11:41:05;6.60;37.40
37846;DHT22;23686;49.828;8.702;2022-11-20T11:43:36;6.70;37.20
37846;DHT22;23686;49.828;8.702;2022-11-20T11:46:23;6.70;34.90
37846;DHT22;23686;49.828;8.702;2022-11-20T11:55:02;6.80;35.80
37846;DHT22;23686;49.828;8.702;2022-11-20T12:00:15;6.90;37.20
37846;DHT22;23686;49.828;8.702;2022-11-20T12:05:29;7.00;40.00
37846;DHT22;23686;49.828;8.702;2022-11-20T12:08:09;7.00;37.10
37846;DHT22;23686;49.828;8.702;2022-11-20T12:15:59;7.20;41.40
37846;DHT22;23686;49.828;8.702;2022-11-20T12:18:26;7.20;44.20
37846;DHT22;23686;49.828;8.702;2022-11-20T12:26:42;7.30;42.90
37846;DHT22;23686;49.828;8.702;2022-11-20T12:29:32;7.30;41.50
37846;DHT22;23686;49.828;8.702;2022-11-20T12:37:30;7.30;43.40
37846;DHT22;23686;49.828;8.702;2022-11-20T12:40:22;7.30;44.20
37846;DHT22;23686;49.828;8.702;2022-11-20T12:43:06;7.30;43.90
